O Brien, Texas
Current Conditions -  °F | °C
As of 4:58 AM on Thursday 27 Nov 2014 (Local Time) from KDYS Reporting Station
Clear Clear  
Wind Chill: 31°   Ceiling: Unl
Heat Index: 31°   Visibility: 10mi
Dew Point: 28°   Wind: 0mph
Humidity: 86%   Direction: NA
Pressure: 30.45"   Gusts: NA
Location:  33.3819°N, 99.8437°W
Report Text: KDYS 271058Z AUTO 00000KT 10SM CLR 00/M02 A3045 RMK AO2 SLP313 T10041025 $
Loading
Personal Weather Stations






























Interactive Weather Map New forecast layout! Learn more

10-Day Weather Forecast

Advertisements
Track Severe Weather on mobile